createdAt,value
2022-08-05T00:04:01.648Z,3.28
2022-08-05T00:08:19.813Z,3.00
2022-08-05T00:12:30.543Z,2.80
2022-08-05T00:16:36.215Z,3.05
2022-08-05T00:20:56.686Z,2.67
2022-08-05T00:25:01.808Z,3.35
2022-08-05T00:29:07.946Z,2.55
2022-08-05T00:34:42.474Z,2.22
2022-08-05T00:37:52.324Z,3.00
2022-08-05T00:41:58.831Z,2.35
2022-08-05T00:46:02.892Z,2.08
2022-08-05T00:50:09.238Z,2.72
2022-08-05T00:54:13.665Z,2.30
2022-08-05T00:58:19.186Z,2.65
2022-08-05T01:02:24.410Z,2.80
2022-08-05T01:06:32.684Z,2.63
2022-08-05T01:10:52.376Z,2.33
2022-08-05T01:15:05.257Z,3.33
2022-08-05T01:19:56.933Z,3.35
2022-08-05T01:24:13.276Z,2.33
2022-08-05T01:28:26.322Z,3.38
2022-08-05T01:32:33.862Z,2.42
2022-08-05T01:36:46.918Z,3.05
2022-08-05T01:40:52.513Z,2.80
2022-08-05T01:44:59.205Z,2.65
2022-08-05T01:49:23.156Z,2.90
2022-08-05T01:53:57.251Z,2.70
2022-08-05T01:58:10.299Z,3.20
2022-08-05T02:02:28.417Z,2.55
2022-08-05T02:06:37.370Z,2.85
2022-08-05T02:10:46.119Z,2.90
2022-08-05T02:14:55.216Z,3.75
2022-08-05T02:19:07.024Z,3.10
2022-08-05T02:23:13.583Z,2.75
2022-08-05T02:27:20.748Z,2.90
2022-08-05T02:31:37.052Z,3.03
2022-08-05T02:35:57.504Z,3.15
2022-08-05T02:40:06.889Z,3.13
2022-08-05T02:44:15.767Z,3.38
2022-08-05T02:48:20.934Z,3.85
2022-08-05T02:52:35.212Z,3.38
2022-08-05T02:56:40.132Z,3.50
2022-08-05T03:00:50.391Z,3.88
2022-08-05T03:04:56.638Z,4.30
2022-08-05T03:09:02.070Z,3.58
2022-08-05T03:13:16.744Z,3.67
2022-08-05T03:17:20.764Z,3.55
2022-08-05T03:21:28.857Z,3.97
2022-08-05T03:26:04.859Z,4.50
2022-08-05T03:30:07.222Z,3.88
2022-08-05T03:34:11.917Z,3.97
2022-08-05T03:38:15.804Z,4.18
2022-08-05T03:42:20.449Z,4.10
2022-08-05T03:46:26.853Z,4.03
2022-08-05T03:50:43.180Z,2.67
2022-08-05T03:55:00.072Z,3.25
2022-08-05T03:59:23.129Z,3.83
2022-08-05T04:03:31.164Z,4.00
2022-08-05T04:07:46.769Z,4.25
2022-08-05T04:12:01.562Z,4.55
2022-08-05T04:16:08.010Z,4.43
2022-08-05T04:20:21.313Z,3.45
2022-08-05T04:24:27.749Z,4.25
2022-08-05T04:28:31.826Z,4.57
2022-08-05T04:32:37.754Z,4.15
2022-08-05T04:36:46.108Z,3.92
2022-08-05T04:40:55.179Z,4.47
2022-08-05T04:44:58.826Z,3.30
2022-08-05T04:49:06.212Z,4.28
2022-08-05T04:53:19.346Z,4.97
2022-08-05T04:57:24.249Z,4.90
2022-08-05T05:02:07.117Z,3.65
2022-08-05T05:06:35.807Z,3.72
2022-08-05T05:10:23.743Z,4.03
2022-08-05T05:14:31.462Z,4.43
2022-08-05T05:18:35.945Z,3.50
2022-08-05T05:22:43.944Z,3.72
2022-08-05T05:26:47.993Z,4.15
2022-08-05T05:30:55.795Z,3.75
2022-08-05T05:34:59.015Z,3.72
2022-08-05T05:39:04.503Z,4.28
2022-08-05T05:43:08.561Z,4.75
2022-08-05T05:47:21.653Z,4.75
2022-08-05T05:51:27.888Z,4.15
2022-08-05T05:55:51.589Z,4.45
2022-08-05T05:59:57.731Z,4.00
2022-08-05T06:04:03.727Z,4.25
2022-08-05T06:08:07.675Z,3.78
2022-08-05T06:12:14.200Z,4.18
2022-08-05T06:16:28.742Z,3.47
2022-08-05T06:20:35.685Z,4.30
2022-08-05T06:24:46.652Z,4.15
2022-08-05T06:32:56.642Z,3.42
2022-08-05T06:37:00.499Z,4.15
2022-08-05T06:41:05.298Z,3.90
2022-08-05T06:45:20.999Z,3.55
2022-08-05T06:50:00.552Z,3.58
2022-08-05T06:53:53.468Z,3.88
2022-08-05T06:58:11.753Z,3.55
2022-08-05T07:02:22.824Z,3.85
2022-08-05T07:06:27.709Z,3.80
2022-08-05T07:10:32.619Z,3.40
2022-08-05T07:14:54.196Z,3.47
2022-08-05T07:18:58.833Z,3.70
2022-08-05T07:23:03.009Z,3.70
2022-08-05T07:27:08.835Z,3.95
2022-08-05T07:31:41.032Z,3.30
2022-08-05T07:36:04.336Z,3.22
2022-08-05T07:40:32.558Z,3.15
2022-08-05T07:44:35.752Z,3.45
2022-08-05T07:49:02.810Z,3.65
2022-08-05T07:53:05.938Z,3.03
2022-08-05T07:57:22.860Z,3.38
2022-08-05T08:01:34.563Z,3.00
2022-08-05T08:05:39.569Z,3.10
2022-08-05T08:09:44.827Z,3.55
2022-08-05T08:14:01.146Z,2.97
2022-08-05T08:18:09.733Z,3.40
2022-08-05T08:22:17.766Z,2.95
2022-08-05T08:26:29.354Z,3.05
2022-08-05T08:30:40.703Z,2.70
2022-08-05T08:34:51.168Z,2.80
2022-08-05T08:38:55.996Z,2.60
2022-08-05T08:45:19.384Z,2.55
2022-08-05T08:48:06.745Z,2.42
2022-08-05T08:52:04.149Z,2.70
2022-08-05T08:56:10.161Z,2.70
2022-08-05T09:00:15.917Z,2.45
2022-08-05T09:04:23.187Z,2.55
2022-08-05T09:08:34.738Z,2.45
2022-08-05T09:12:40.404Z,2.45
2022-08-05T09:16:49.021Z,2.55
2022-08-05T09:20:52.452Z,2.80
2022-08-05T09:25:00.331Z,2.50
2022-08-05T09:29:06.740Z,2.60
2022-08-05T09:33:15.205Z,2.60
2022-08-05T09:38:12.173Z,3.03
2022-08-05T09:41:59.828Z,2.90
2022-08-05T09:46:06.960Z,3.35
2022-08-05T09:50:18.015Z,3.85
2022-08-05T09:54:37.682Z,4.13
2022-08-05T09:58:43.963Z,3.17
2022-08-05T10:02:54.884Z,4.20
2022-08-05T10:07:06.128Z,3.80
2022-08-05T10:11:31.305Z,3.58
2022-08-05T10:15:42.105Z,4.43
2022-08-05T10:20:04.207Z,3.75
2022-08-05T10:24:14.017Z,3.38
2022-08-05T10:28:30.307Z,2.78
2022-08-05T10:32:53.604Z,2.90
2022-08-05T10:36:58.247Z,3.05
2022-08-05T10:41:12.458Z,3.45
2022-08-05T10:45:23.363Z,2.97
2022-08-05T10:49:49.005Z,2.20
2022-08-05T10:54:01.618Z,2.25
2022-08-05T10:58:11.860Z,2.30
2022-08-05T11:02:37.877Z,2.78
2022-08-05T11:07:08.446Z,2.42
2022-08-05T11:11:44.426Z,2.72
2022-08-05T11:16:22.918Z,2.35
2022-08-05T11:20:44.758Z,1.92
2022-08-05T11:25:01.552Z,2.00
2022-08-05T11:29:38.279Z,2.60
2022-08-05T11:33:55.862Z,2.85
2022-08-05T11:38:28.357Z,1.95
2022-08-05T11:42:27.939Z,2.35
2022-08-05T11:46:34.447Z,2.80
2022-08-05T11:50:42.633Z,2.42
2022-08-05T11:54:55.016Z,2.47
2022-08-05T11:58:59.097Z,1.77
2022-08-05T12:03:29.086Z,2.25
2022-08-05T12:08:08.669Z,2.47
2022-08-05T12:12:02.601Z,2.33
2022-08-05T12:16:15.028Z,2.78
2022-08-05T12:20:27.758Z,2.65
2022-08-05T12:24:43.730Z,2.40
2022-08-05T12:28:53.281Z,2.58
2022-08-05T12:33:07.278Z,2.08
2022-08-05T12:37:22.543Z,2.38
2022-08-05T12:41:43.575Z,2.40
2022-08-05T12:45:55.137Z,2.13
2022-08-05T12:50:04.494Z,1.73
2022-08-05T12:54:16.576Z,2.50
2022-08-05T12:58:49.311Z,2.63
2022-08-05T13:02:55.670Z,2.55
2022-08-05T13:07:00.580Z,2.25
2022-08-05T13:11:05.101Z,2.58
2022-08-05T13:15:16.561Z,2.30
2022-08-05T13:19:52.196Z,2.63
2022-08-05T13:23:52.392Z,2.90
2022-08-05T13:27:57.607Z,2.45
2022-08-05T13:32:04.282Z,2.47
2022-08-05T13:36:09.157Z,2.10
2022-08-05T13:40:35.584Z,2.10
2022-08-05T13:44:39.136Z,1.83
2022-08-05T13:48:57.850Z,2.20
2022-08-05T13:53:03.471Z,2.67
2022-08-05T13:57:13.002Z,2.13
2022-08-05T14:01:18.730Z,2.25
2022-08-05T14:05:29.269Z,1.95
2022-08-05T14:09:47.053Z,1.73
2022-08-05T14:13:54.920Z,2.58
2022-08-05T14:18:00.692Z,2.20
2022-08-05T14:22:09.901Z,1.92
2022-08-05T14:26:35.792Z,2.20
2022-08-05T14:30:39.348Z,1.88
2022-08-05T14:34:49.381Z,1.80
2022-08-05T14:38:57.513Z,1.80
2022-08-05T14:43:01.071Z,2.40
2022-08-05T14:47:04.746Z,1.83
2022-08-05T14:51:15.453Z,2.08
2022-08-05T14:55:21.203Z,1.73
2022-08-05T14:59:25.329Z,2.30
2022-08-05T15:03:39.037Z,1.88
2022-08-05T15:08:06.681Z,2.20
2022-08-05T15:12:16.543Z,2.05
2022-08-05T15:16:30.259Z,2.28
2022-08-05T15:20:33.333Z,1.92
2022-08-05T15:24:39.742Z,2.22
2022-08-05T15:28:44.879Z,1.85
2022-08-05T15:32:55.678Z,2.42
2022-08-05T15:37:03.463Z,2.03
2022-08-05T15:41:21.129Z,2.22
2022-08-05T15:45:38.538Z,2.75
2022-08-05T15:49:56.605Z,2.35
2022-08-05T15:54:02.213Z,2.28
2022-08-05T15:58:16.507Z,2.15
2022-08-05T16:02:25.415Z,2.47
2022-08-05T16:06:30.062Z,2.45
2022-08-05T16:10:33.764Z,2.20
2022-08-05T16:14:37.258Z,1.98
2022-08-05T16:18:52.747Z,1.92
2022-08-05T16:22:57.450Z,2.15
2022-08-05T16:27:02.525Z,1.63
2022-08-05T16:31:07.525Z,2.00
2022-08-05T16:35:15.957Z,2.08
2022-08-05T16:39:21.692Z,2.50
2022-08-05T16:43:44.833Z,2.70
2022-08-05T16:47:54.390Z,2.55
2022-08-05T16:52:02.844Z,2.50
2022-08-05T16:56:08.549Z,1.90
2022-08-05T17:00:33.992Z,2.05
2022-08-05T17:04:38.108Z,2.60
2022-08-05T17:08:53.111Z,2.50
2022-08-05T17:12:57.849Z,2.10
2022-08-05T17:17:02.692Z,2.38
2022-08-05T17:21:06.126Z,2.10
2022-08-05T17:25:33.910Z,2.38
2022-08-05T17:29:40.969Z,2.65
2022-08-05T17:33:48.472Z,3.17
2022-08-05T17:37:54.258Z,2.75
2022-08-05T17:42:19.843Z,2.88
2022-08-05T17:46:30.984Z,2.78
2022-08-05T17:50:34.278Z,2.20
2022-08-05T17:54:38.123Z,2.40
2022-08-05T17:58:43.172Z,3.20
2022-08-05T18:02:48.725Z,2.83
2022-08-05T18:06:52.097Z,3.08
2022-08-05T18:10:56.227Z,2.50
2022-08-05T18:15:02.519Z,2.72
2022-08-05T18:19:07.514Z,3.10
2022-08-05T18:23:12.139Z,2.70
2022-08-05T18:27:18.943Z,3.05
2022-08-05T18:31:25.026Z,2.42
2022-08-05T18:36:01.006Z,2.55
2022-08-05T18:40:34.663Z,2.92
2022-08-05T18:44:15.327Z,3.35
2022-08-05T18:48:41.516Z,2.73
2022-08-05T18:52:50.959Z,2.80
2022-08-05T18:56:57.144Z,3.05
2022-08-05T19:01:01.378Z,3.13
2022-08-05T19:06:05.449Z,2.88
2022-08-05T19:09:40.229Z,3.33
2022-08-05T19:13:47.869Z,2.97
2022-08-05T19:17:59.868Z,2.83
2022-08-05T19:22:17.060Z,2.58
2022-08-05T19:26:22.933Z,2.78
2022-08-05T19:30:28.897Z,3.30
2022-08-05T19:34:32.001Z,3.03
2022-08-05T19:38:37.364Z,2.97
2022-08-05T19:42:41.267Z,2.63
2022-08-05T19:46:44.972Z,2.13
2022-08-05T19:50:48.795Z,3.00
2022-08-05T19:54:56.724Z,3.30
2022-08-05T19:59:54.600Z,3.35
2022-08-05T20:03:27.552Z,2.67
2022-08-05T20:07:48.090Z,3.20
2022-08-05T20:11:54.050Z,3.00
2022-08-05T20:15:57.879Z,2.88
2022-08-05T20:20:05.349Z,3.15
2022-08-05T20:24:12.583Z,2.95
2022-08-05T20:28:20.696Z,3.00
2022-08-05T20:32:27.089Z,3.10
2022-08-05T20:36:30.917Z,3.40
2022-08-05T20:40:36.720Z,2.65
2022-08-05T20:44:41.555Z,3.03
2022-08-05T20:48:44.588Z,3.55
2022-08-05T20:52:49.893Z,2.25
2022-08-05T20:56:59.480Z,3.40
2022-08-05T21:01:09.191Z,3.20
2022-08-05T21:05:12.254Z,2.78
2022-08-05T21:09:16.508Z,2.53
2022-08-05T21:13:36.796Z,2.25
2022-08-05T21:17:44.649Z,3.10
2022-08-05T21:21:51.418Z,2.33
2022-08-05T21:25:55.493Z,2.47
2022-08-05T21:30:01.948Z,2.35
2022-08-05T21:34:07.420Z,2.10
2022-08-05T21:38:11.152Z,2.53
2022-08-05T21:42:30.802Z,2.65
2022-08-05T21:46:39.716Z,2.15
2022-08-05T21:50:54.163Z,2.20
2022-08-05T21:55:06.367Z,2.60
2022-08-05T21:59:24.322Z,2.20
2022-08-05T22:03:49.064Z,2.10
2022-08-05T22:07:58.750Z,2.10
2022-08-05T22:12:03.403Z,2.35
2022-08-05T22:16:40.406Z,2.47
2022-08-05T22:20:38.908Z,3.03
2022-08-05T22:25:02.044Z,2.38
2022-08-05T22:29:06.179Z,2.35
2022-08-05T22:33:15.484Z,2.40
2022-08-05T22:37:19.761Z,1.98
2022-08-05T22:42:04.894Z,2.35
2022-08-05T22:45:48.890Z,1.95
2022-08-05T22:50:22.839Z,1.65
2022-08-05T22:54:16.833Z,1.90
2022-08-05T22:58:28.495Z,2.67
2022-08-05T23:02:32.884Z,1.90
2022-08-05T23:06:36.744Z,1.83
2022-08-05T23:10:40.888Z,2.15
2022-08-05T23:14:46.049Z,1.50
2022-08-05T23:18:49.516Z,1.67
2022-08-05T23:22:56.130Z,1.63
2022-08-05T23:27:00.112Z,2.35
2022-08-05T23:31:17.560Z,1.80
2022-08-05T23:35:21.485Z,1.60
2022-08-05T23:39:44.417Z,1.55
2022-08-05T23:44:06.083Z,1.85
2022-08-05T23:48:13.719Z,1.13
2022-08-05T23:52:30.768Z,1.40
2022-08-05T23:56:34.819Z,1.70
